Time;durP1;ratioP1;P1;durP2;ratioP2;P2;SDS_P1;SDS_P2;PMS_P1;PMS_P2;Temp;Humidity;BMP_temperature;BMP_pressure;BME280_temperature;BME280_humidity;BME280_pressure;Samples;Min_cycle;Max_cycle;Signal;HPM_P1;HPM_P2
2022/11/13 00:05:20;;;;;;;21.58;16.60;;;;;;;-144.40;100.00;60209.53;4862295;29;20069;-96
2022/11/13 00:11:19;;;;;;;30.92;17.33;;;;;;;-144.40;100.00;60209.53;4841307;29;20033;-95
2022/11/13 00:13:53;;;;;;;23.45;15.88;;;;;;;-144.40;100.00;60209.53;4860688;29;20082;-95
2022/11/13 00:20:04;;;;;;;29.98;16.25;;;;;;;-144.40;100.00;60209.53;4863559;29;20061;-95
2022/11/13 00:22:57;;;;;;;31.63;16.30;;;;;;;-144.40;100.00;60209.53;4864901;29;20037;-96
2022/11/13 00:25:26;;;;;;;25.58;15.90;;;;;;;-144.40;100.00;60209.53;4862428;29;20033;-96
2022/11/13 00:28:08;;;;;;;41.35;17.27;;;;;;;-144.40;100.00;60209.53;4875446;29;20193;-95
2022/11/13 00:30:39;;;;;;;22.85;16.42;;;;;;;-144.40;100.00;60209.53;4859637;29;20499;-94
2022/11/13 00:33:11;;;;;;;27.83;15.98;;;;;;;-144.40;100.00;60209.53;4861578;29;20093;-96
2022/11/13 00:35:42;;;;;;;24.13;16.60;;;;;;;-144.40;100.00;60209.53;4854995;29;20040;-96
2022/11/13 00:39:04;;;;;;;22.10;16.50;;;;;;;-144.40;100.00;60209.53;4870852;29;20065;-96
2022/11/13 01:14:03;;;;;;;30.38;20.27;;;;;;;-144.40;100.00;60209.53;5906103;23;20024;-96
2022/11/13 02:50:12;;;;;;;32.08;17.85;;;;;;;-144.40;100.00;60209.53;5499029;23;20076;-96
2022/11/13 08:04:52;;;;;;;;;;;;;;;;;;;;;
2022/11/13 08:07:57;;;;;;;42.88;26.75;;;;;;;-144.40;100.00;60209.53;4852787;29;20533;-94
2022/11/13 08:13:56;;;;;;;35.00;24.90;;;;;;;-144.40;100.00;60209.53;4881413;23;20416;-94
2022/11/13 08:19:29;;;;;;;38.45;25.25;;;;;;;-144.40;100.00;60209.53;4921387;23;20429;-94
2022/11/13 08:22:14;;;;;;;33.22;22.85;;;;;;;-144.40;100.00;60209.53;4860025;29;20030;-96
2022/11/13 08:24:39;;;;;;;36.75;22.45;;;;;;;-144.40;100.00;60209.53;4867985;29;20037;-95
2022/11/13 08:27:06;;;;;;;35.67;22.45;;;;;;;-144.40;100.00;60209.53;4869730;29;20040;-94
2022/11/13 08:29:49;;;;;;;31.83;22.90;;;;;;;-144.40;100.00;60209.53;4878806;29;20057;-96
2022/11/13 08:42:51;;;;;;;35.45;22.45;;;;;;;-144.40;100.00;60209.53;4870791;29;20058;-95
2022/11/13 08:45:19;;;;;;;33.83;22.23;;;;;;;-144.40;100.00;60209.53;4886209;29;20033;-94
2022/11/13 08:47:45;;;;;;;32.28;22.65;;;;;;;-144.40;100.00;60209.53;4869693;29;20038;-94
2022/11/13 08:50:14;;;;;;;32.13;21.50;;;;;;;-144.40;100.00;60209.53;4875005;29;20038;-96
2022/11/13 08:52:40;;;;;;;31.23;21.65;;;;;;;-144.40;100.00;60209.53;4875942;29;20686;-95
2022/11/13 08:55:05;;;;;;;34.10;22.90;;;;;;;-144.40;100.00;60209.53;4872237;29;20032;-95
2022/11/13 08:57:44;;;;;;;;;;;;;;;;;;;;;
2022/11/13 09:00:13;;;;;;;26.33;19.90;;;;;;;-144.40;100.00;60209.53;4865080;29;20548;-96
2022/11/13 09:02:42;;;;;;;33.10;20.63;;;;;;;-144.40;100.00;60209.53;4865078;29;20033;-96
2022/11/13 09:05:17;;;;;;;28.92;18.98;;;;;;;-144.40;100.00;60209.53;4868843;29;20030;-96
2022/11/13 09:07:42;;;;;;;30.10;20.42;;;;;;;-144.40;100.00;60209.53;4856216;29;20029;-93
2022/11/13 09:10:08;;;;;;;29.88;19.08;;;;;;;-144.40;100.00;60209.53;4872187;29;20111;-92
2022/11/13 09:12:34;;;;;;;22.58;17.77;;;;;;;-144.40;100.00;60209.53;4855701;29;20030;-92
2022/11/13 09:14:59;;;;;;;24.80;18.98;;;;;;;-144.40;100.00;60209.53;4856916;29;20030;-93
2022/11/13 09:17:25;;;;;;;24.00;18.48;;;;;;;-144.40;100.00;60209.53;4857161;29;20069;-94
2022/11/13 09:19:50;;;;;;;24.70;18.52;;;;;;;-144.40;100.00;60209.53;4856880;29;20473;-93
2022/11/13 09:22:16;;;;;;;32.05;19.50;;;;;;;-144.40;100.00;60209.53;4856493;29;20094;-93
2022/11/13 09:24:41;;;;;;;24.60;17.38;;;;;;;-144.40;100.00;60209.53;4854848;29;20393;-92
2022/11/13 09:27:07;;;;;;;26.60;17.17;;;;;;;-144.40;100.00;60209.53;4857903;29;20120;-92
2022/11/13 09:29:32;;;;;;;32.97;17.70;;;;;;;-144.40;100.00;60209.53;4856595;29;20071;-93
2022/11/13 09:31:58;;;;;;;24.08;16.67;;;;;;;-144.40;100.00;60209.53;4856725;29;20053;-92
2022/11/13 09:34:25;;;;;;;25.40;17.70;;;;;;;-144.40;100.00;60209.53;4856087;29;20124;-92
2022/11/13 09:36:50;;;;;;;22.02;16.38;;;;;;;-144.40;100.00;60209.53;4855268;29;20042;-92
2022/11/13 09:39:16;;;;;;;26.45;17.00;;;;;;;-144.40;100.00;60209.53;4855993;29;20037;-91
2022/11/13 09:41:45;;;;;;;21.90;16.23;;;;;;;-144.40;100.00;60209.53;4849488;29;20025;-93
2022/11/13 09:44:41;;;;;;;18.83;14.68;;;;;;;-144.40;100.00;60209.53;4853722;29;20098;-93
2022/11/13 09:47:32;;;;;;;20.77;14.20;;;;;;;-144.40;100.00;60209.53;4856475;29;20053;-93
2022/11/13 09:50:06;;;;;;;20.27;14.60;;;;;;;-144.40;100.00;60209.53;4856348;29;20116;-92
2022/11/13 09:52:36;;;;;;;26.05;15.50;;;;;;;-144.40;100.00;60209.53;4855889;29;20085;-92
2022/11/13 09:55:03;;;;;;;20.90;15.00;;;;;;;-144.40;100.00;60209.53;4856708;29;20065;-91
2022/11/13 09:57:34;;;;;;;18.83;13.57;;;;;;;-144.40;100.00;60209.53;4855682;29;20030;-94
2022/11/13 10:00:03;;;;;;;21.17;12.10;;;;;;;-144.40;100.00;60209.53;4854963;29;20029;-93
2022/11/13 10:03:02;;;;;;;20.40;12.02;;;;;;;-144.40;100.00;60209.53;4854918;29;20080;-93
2022/11/13 10:05:50;;;;;;;16.05;10.30;;;;;;;-144.40;100.00;60209.53;4886673;23;20136;-92
2022/11/13 10:08:52;;;;;;;16.85;10.95;;;;;;;-144.40;100.00;60209.53;4840643;29;20071;-92
2022/11/13 10:11:21;;;;;;;18.80;11.77;;;;;;;-144.40;100.00;60209.53;4864203;29;20168;-93
2022/11/13 10:13:49;;;;;;;14.82;10.07;;;;;;;-144.40;100.00;60209.53;4854789;29;20041;-94
2022/11/13 10:16:18;;;;;;;16.80;9.57;;;;;;;-144.40;100.00;60209.53;4851431;29;20098;-92
2022/11/13 10:18:45;;;;;;;14.90;8.65;;;;;;;-144.40;100.00;60209.53;4847204;29;20029;-95
2022/11/13 10:21:33;;;;;;;11.60;8.30;;;;;;;-144.40;100.00;60209.53;4853372;29;20122;-94
2022/11/13 10:24:03;;;;;;;13.90;9.23;;;;;;;-144.40;100.00;60209.53;4843134;29;20032;-93
2022/11/13 10:26:29;;;;;;;12.32;8.65;;;;;;;-144.40;100.00;60209.53;4850469;29;20029;-92
2022/11/13 10:29:04;;;;;;;17.15;9.23;;;;;;;-144.40;100.00;60209.53;4854377;29;20037;-91
2022/11/13 10:31:40;;;;;;;12.43;8.57;;;;;;;-144.40;100.00;60209.53;4856365;29;20120;-93
2022/11/13 10:34:06;;;;;;;17.73;8.13;;;;;;;-144.40;100.00;60209.53;4854483;29;20121;-94
2022/11/13 10:36:43;;;;;;;9.90;7.55;;;;;;;-144.40;100.00;60209.53;4852785;29;20163;-92
2022/11/13 10:39:09;;;;;;;11.63;7.97;;;;;;;-144.40;100.00;60209.53;4848326;29;20030;-90
2022/11/13 10:41:52;;;;;;;12.43;8.52;;;;;;;-144.40;100.00;60209.53;4848834;29;21357;-89
2022/11/13 10:44:36;;;;;;;13.77;7.78;;;;;;;-144.40;100.00;60209.53;4850876;29;20049;-91
2022/11/13 10:47:18;;;;;;;13.10;7.53;;;;;;;-144.40;100.00;60209.53;4855731;29;20038;-91
2022/11/13 10:49:43;;;;;;;9.90;6.55;;;;;;;-144.40;100.00;60209.53;4851354;29;20116;-92
2022/11/13 10:52:20;;;;;;;11.05;7.00;;;;;;;-144.40;100.00;60209.53;4850252;29;20606;-92
2022/11/13 10:54:47;;;;;;;11.10;7.03;;;;;;;-144.40;100.00;60209.53;4841363;29;20128;-92
2022/11/13 10:57:33;;;;;;;12.27;6.65;;;;;;;-144.40;100.00;60209.53;4849647;29;20028;-92
2022/11/13 10:59:59;;;;;;;9.48;6.65;;;;;;;-144.40;100.00;60209.53;4850499;29;20457;-89
2022/11/13 11:02:27;;;;;;;10.88;6.60;;;;;;;-144.40;100.00;60209.53;4849608;29;20045;-90
2022/11/13 11:05:15;;;;;;;11.80;6.35;;;;;;;-144.40;100.00;60209.53;4852390;29;20052;-92
2022/11/13 11:07:41;;;;;;;10.48;5.72;;;;;;;-144.40;100.00;60209.53;4847663;29;20076;-91
2022/11/13 11:10:29;;;;;;;11.77;7.07;;;;;;;-144.40;100.00;60209.53;4852442;29;20049;-92
2022/11/13 11:13:01;;;;;;;12.50;6.07;;;;;;;-144.40;100.00;60209.53;4851006;29;20060;-92
2022/11/13 11:15:53;;;;;;;10.55;6.15;;;;;;;-144.40;100.00;60209.53;4856955;29;20120;-92
2022/11/13 11:18:24;;;;;;;11.23;6.15;;;;;;;-144.40;100.00;60209.53;4851640;29;20044;-93
2022/11/13 11:20:54;;;;;;;8.93;6.03;;;;;;;-144.40;100.00;60209.53;4850945;29;20029;-91
2022/11/13 11:23:28;;;;;;;6.82;5.22;;;;;;;-144.40;100.00;60209.53;4855419;29;20049;-92
2022/11/13 11:26:04;;;;;;;8.23;4.97;;;;;;;-144.40;100.00;60209.53;4852369;29;20121;-92
2022/11/13 11:28:41;;;;;;;9.35;5.07;;;;;;;-144.40;100.00;60209.53;4864348;29;20041;-93
2022/11/13 11:31:15;;;;;;;7.90;4.68;;;;;;;-144.40;100.00;60209.53;4854099;29;20449;-92
2022/11/13 11:33:52;;;;;;;8.27;5.75;;;;;;;-144.40;100.00;60209.53;4853439;29;20025;-92
2022/11/13 11:36:37;;;;;;;13.13;5.25;;;;;;;-144.40;100.00;60209.53;4853751;29;20025;-93
2022/11/13 11:39:25;;;;;;;8.30;5.03;;;;;;;-144.40;100.00;60209.53;4853601;29;20021;-93
2022/11/13 11:42:03;;;;;;;9.60;4.85;;;;;;;-144.40;100.00;60209.53;4856351;29;20034;-91
2022/11/13 11:44:43;;;;;;;10.07;5.10;;;;;;;-144.40;100.00;60209.53;4856980;29;20041;-93
2022/11/13 11:47:15;;;;;;;7.22;4.03;;;;;;;-144.40;100.00;60209.53;4857923;29;20045;-93
2022/11/13 11:49:42;;;;;;;10.00;5.32;;;;;;;-144.40;100.00;60209.53;4858987;29;20108;-93
2022/11/13 11:52:50;;;;;;;7.13;4.43;;;;;;;-144.40;100.00;60209.53;4851574;29;20021;-92
2022/11/13 11:55:39;;;;;;;8.70;4.63;;;;;;;-144.40;100.00;60209.53;4848728;29;20037;-93
2022/11/13 11:58:27;;;;;;;11.75;4.60;;;;;;;-144.40;100.00;60209.53;4857114;29;20044;-92
2022/11/13 12:01:03;;;;;;;8.25;5.10;;;;;;;-144.40;100.00;60209.53;4844801;29;20037;-92
2022/11/13 12:03:54;;;;;;;7.82;3.92;;;;;;;-144.40;100.00;60209.53;4852989;29;20061;-92
2022/11/13 12:06:38;;;;;;;11.85;4.68;;;;;;;-144.40;100.00;60209.53;4855479;29;20112;-92
2022/11/13 12:09:03;;;;;;;9.68;5.20;;;;;;;-144.40;100.00;60209.53;4856228;29;20408;-91
2022/11/13 12:11:55;;;;;;;10.52;4.80;;;;;;;-144.40;100.00;60209.53;4858669;29;20033;-91
2022/11/13 12:14:42;;;;;;;7.03;4.55;;;;;;;-144.40;100.00;60209.53;4849112;29;20030;-93
2022/11/13 12:17:20;;;;;;;10.55;5.35;;;;;;;-144.40;100.00;60209.53;4855404;29;20124;-91
2022/11/13 12:19:53;;;;;;;8.70;4.70;;;;;;;-144.40;100.00;60209.53;4853994;29;20072;-92
2022/11/13 12:22:38;;;;;;;9.05;4.97;;;;;;;-144.40;100.00;60209.53;4852129;29;20132;-92
2022/11/13 12:25:30;;;;;;;7.38;4.68;;;;;;;-144.40;100.00;60209.53;4853650;29;20531;-94
2022/11/13 12:28:24;;;;;;;12.98;5.55;;;;;;;-144.40;100.00;60209.53;4851423;29;20030;-94
2022/11/13 12:31:17;;;;;;;10.27;5.38;;;;;;;-144.40;100.00;60209.53;4843746;29;20459;-95
2022/11/13 12:34:11;;;;;;;9.70;5.30;;;;;;;-144.40;100.00;60209.53;4856400;29;20033;-92
2022/11/13 12:36:37;;;;;;;10.48;4.88;;;;;;;-144.40;100.00;60209.53;4854543;29;20116;-93
2022/11/13 12:39:17;;;;;;;9.40;4.82;;;;;;;-144.40;100.00;60209.53;4858616;29;20112;-94
2022/11/13 12:41:59;;;;;;;8.50;5.57;;;;;;;-144.40;100.00;60209.53;4850251;29;20094;-91
2022/11/13 12:44:29;;;;;;;13.38;5.95;;;;;;;-144.40;100.00;60209.53;4844180;29;20045;-94
2022/11/13 12:46:59;;;;;;;9.15;5.80;;;;;;;-144.40;100.00;60209.53;4852645;29;20129;-93
2022/11/13 12:49:33;;;;;;;9.48;5.80;;;;;;;-144.40;100.00;60209.53;4852879;29;20045;-94
2022/11/13 12:52:16;;;;;;;9.75;5.32;;;;;;;-144.40;100.00;60209.53;4858459;29;20125;-94
2022/11/13 12:54:42;;;;;;;9.52;5.35;;;;;;;-144.40;100.00;60209.53;4860396;29;20086;-92
2022/11/13 12:57:17;;;;;;;10.02;5.82;;;;;;;-144.40;100.00;60209.53;4859929;29;20489;-91
2022/11/13 12:59:51;;;;;;;9.60;5.40;;;;;;;-144.40;100.00;60209.53;4853497;29;20034;-93
2022/11/13 13:02:43;;;;;;;15.50;6.38;;;;;;;-144.40;100.00;60209.53;4856703;29;20030;-92
2022/11/13 13:05:19;;;;;;;7.47;5.82;;;;;;;-144.40;100.00;60209.53;4840845;29;20041;-92
2022/11/13 13:08:18;;;;;;;9.90;5.78;;;;;;;-144.40;100.00;60209.53;4856858;29;20393;-93
2022/11/13 13:11:00;;;;;;;10.70;6.32;;;;;;;-144.40;100.00;60209.53;4842004;29;20477;-92
2022/11/13 13:13:47;;;;;;;9.57;5.90;;;;;;;-144.40;100.00;60209.53;4842048;29;20511;-92
2022/11/13 13:16:24;;;;;;;9.18;6.07;;;;;;;-144.40;100.00;60209.53;4841065;29;20033;-93
2022/11/13 13:18:50;;;;;;;8.57;5.82;;;;;;;-144.40;100.00;60209.53;4842049;29;20098;-91
2022/11/13 13:21:17;;;;;;;8.98;6.00;;;;;;;-144.40;100.00;60209.53;4841612;29;20026;-92
2022/11/13 13:23:47;;;;;;;13.50;6.10;;;;;;;-144.40;100.00;60209.53;4841085;29;20041;-92
2022/11/13 13:26:15;;;;;;;7.82;6.28;;;;;;;-144.40;100.00;60209.53;4841000;29;20030;-91
2022/11/13 13:28:50;;;;;;;9.48;6.20;;;;;;;-144.40;100.00;60209.53;4842064;29;20030;-90
2022/11/13 13:31:30;;;;;;;11.63;5.70;;;;;;;-144.40;100.00;60209.53;4840708;29;20443;-94
2022/11/13 13:34:17;;;;;;;12.50;5.78;;;;;;;-144.40;100.00;60209.53;4859078;29;20044;-94
2022/11/13 13:37:10;;;;;;;8.73;4.68;;;;;;;-144.40;100.00;60209.53;4858892;29;20034;-92
2022/11/13 13:39:52;;;;;;;12.10;5.35;;;;;;;-144.40;100.00;60209.53;4858704;29;20056;-92
2022/11/13 13:42:21;;;;;;;;;;;;;;;-144.40;100.00;60209.53;4859205;29;20057;-91
2022/11/13 13:44:56;;;;;;;13.65;5.10;;;;;;;-144.40;100.00;60209.53;4860119;29;20479;-94
2022/11/13 13:47:24;;;;;;;10.35;5.22;;;;;;;-144.40;100.00;60209.53;4848051;29;20124;-94
2022/11/13 13:49:51;;;;;;;10.30;4.78;;;;;;;-144.40;100.00;60209.53;4842896;29;20040;-93
2022/11/13 13:52:23;;;;;;;14.40;6.03;;;;;;;-144.40;100.00;60209.53;4840595;29;20553;-93
2022/11/13 13:54:48;;;;;;;11.43;5.53;;;;;;;-144.40;100.00;60209.53;4840487;29;20029;-93
2022/11/13 13:57:15;;;;;;;9.80;5.47;;;;;;;-144.40;100.00;60209.53;4840497;29;20562;-94
2022/11/13 13:59:45;;;;;;;11.27;5.32;;;;;;;-144.40;100.00;60209.53;4840082;29;20374;-92
2022/11/13 14:02:21;;;;;;;12.85;4.95;;;;;;;-144.40;100.00;60209.53;4842130;29;20030;-94
2022/11/13 14:04:50;;;;;;;10.35;5.05;;;;;;;-144.40;100.00;60209.53;4840563;29;20113;-92
2022/11/13 14:07:44;;;;;;;9.13;4.50;;;;;;;-144.40;100.00;60209.53;4841407;29;20054;-92
2022/11/13 14:10:22;;;;;;;9.90;5.10;;;;;;;-144.40;100.00;60209.53;4841161;29;20054;-91
2022/11/13 14:12:48;;;;;;;8.88;4.95;;;;;;;-144.40;100.00;60209.53;4841205;29;20034;-91
2022/11/13 14:15:34;;;;;;;15.35;5.32;;;;;;;-144.40;100.00;60209.53;4840829;29;20121;-91
2022/11/13 14:18:16;;;;;;;11.48;4.55;;;;;;;-144.40;100.00;60209.53;4855256;29;20037;-92
2022/11/13 14:20:50;;;;;;;7.15;4.55;;;;;;;-144.40;100.00;60209.53;4859226;29;20036;-93
2022/11/13 14:23:33;;;;;;;10.10;4.63;;;;;;;-144.40;100.00;60209.53;4859074;29;20030;-92
2022/11/13 14:25:59;;;;;;;9.02;5.25;;;;;;;-144.40;100.00;60209.53;4859878;29;20093;-92
2022/11/13 14:28:28;;;;;;;11.13;5.40;;;;;;;-144.40;100.00;60209.53;4858731;29;20021;-92
2022/11/13 14:30:58;;;;;;;13.25;5.70;;;;;;;-144.40;100.00;60209.53;4859939;29;20397;-92
2022/11/13 14:33:43;;;;;;;8.50;5.53;;;;;;;-144.40;100.00;60209.53;4854642;29;20026;-93
2022/11/13 14:36:10;;;;;;;13.13;4.80;;;;;;;-144.40;100.00;60209.53;4840366;29;20037;-92
2022/11/13 14:38:41;;;;;;;8.82;4.50;;;;;;;-144.40;100.00;60209.53;4840456;29;20053;-92
2022/11/13 14:41:19;;;;;;;9.65;4.43;;;;;;;-144.40;100.00;60209.53;4841420;29;20034;-91
2022/11/13 14:43:49;;;;;;;9.05;5.30;;;;;;;-144.40;100.00;60209.53;4841470;29;20505;-91
2022/11/13 14:46:34;;;;;;;14.88;5.95;;;;;;;-144.40;100.00;60209.53;4841655;29;20037;-92
2022/11/13 14:48:59;;;;;;;8.18;4.50;;;;;;;-144.40;100.00;60209.53;4861618;29;20033;-91
2022/11/13 14:51:27;;;;;;;10.25;4.43;;;;;;;-144.40;100.00;60209.53;4862646;29;20036;-91
2022/11/13 14:54:02;;;;;;;12.98;5.47;;;;;;;-144.40;100.00;60209.53;4863253;29;20085;-91
2022/11/13 14:56:35;;;;;;;14.10;5.32;;;;;;;-144.40;100.00;60209.53;4862401;29;20166;-92
2022/11/13 14:59:13;;;;;;;8.70;4.80;;;;;;;-144.40;100.00;60209.53;4863435;29;20037;-92
2022/11/13 15:01:39;;;;;;;12.00;4.70;;;;;;;-144.40;100.00;60209.53;4861444;29;20032;-92
2022/11/13 15:04:05;;;;;;;13.75;4.63;;;;;;;-144.40;100.00;60209.53;4861765;29;20044;-93
2022/11/13 15:06:37;;;;;;;12.63;5.10;;;;;;;-144.40;100.00;60209.53;4862826;29;20041;-92
2022/11/13 15:09:05;;;;;;;9.15;4.72;;;;;;;-144.40;100.00;60209.53;4862075;29;20396;-94
2022/11/13 15:11:31;;;;;;;10.80;4.47;;;;;;;-144.40;100.00;60209.53;4862234;29;20036;-91
2022/11/13 15:13:56;;;;;;;8.05;4.40;;;;;;;-144.40;100.00;60209.53;4861791;29;20034;-93
2022/11/13 15:16:26;;;;;;;8.23;3.97;;;;;;;-144.40;100.00;60209.53;4861292;29;20035;-93
2022/11/13 15:19:04;;;;;;;15.65;4.90;;;;;;;-144.40;100.00;60209.53;4857406;29;20033;-93
2022/11/13 15:21:30;;;;;;;12.68;4.72;;;;;;;-144.40;100.00;60209.53;4852164;29;20524;-93
2022/11/13 15:23:56;;;;;;;12.00;4.35;;;;;;;-144.40;100.00;60209.53;4861255;29;20492;-93
2022/11/13 15:26:22;;;;;;;8.57;4.50;;;;;;;-144.40;100.00;60209.53;4858948;29;20126;-93
2022/11/13 15:28:48;;;;;;;13.23;4.28;;;;;;;-144.40;100.00;60209.53;4859995;29;20021;-92
2022/11/13 15:31:19;;;;;;;9.13;4.85;;;;;;;-144.40;100.00;60209.53;4858507;29;20473;-93
2022/11/13 15:33:46;;;;;;;10.60;4.50;;;;;;;-144.40;100.00;60209.53;4858369;29;20082;-93
2022/11/13 15:36:11;;;;;;;9.52;4.85;;;;;;;-144.40;100.00;60209.53;4860837;29;20033;-93
2022/11/13 15:38:37;;;;;;;9.57;4.38;;;;;;;-144.40;100.00;60209.53;4858199;29;20511;-93
2022/11/13 15:41:27;;;;;;;11.60;4.78;;;;;;;-144.40;100.00;60209.53;4861276;29;20034;-93
2022/11/13 15:43:54;;;;;;;9.15;4.55;;;;;;;-144.40;100.00;60209.53;4859699;29;20170;-93
2022/11/13 15:46:21;;;;;;;9.57;4.53;;;;;;;-144.40;100.00;60209.53;4859765;29;20040;-92
2022/11/13 15:48:48;;;;;;;11.40;5.05;;;;;;;-144.40;100.00;60209.53;4855020;29;20332;-92
2022/11/13 15:51:38;;;;;;;10.20;4.35;;;;;;;-144.40;100.00;60209.53;4857811;29;20033;-92
2022/11/13 15:54:13;;;;;;;13.00;4.95;;;;;;;-144.40;100.00;60209.53;4859458;29;20042;-92
2022/11/13 15:56:39;;;;;;;12.00;5.68;;;;;;;-144.40;100.00;60209.53;4860811;29;20513;-93
2022/11/13 15:59:04;;;;;;;15.27;5.45;;;;;;;-144.40;100.00;60209.53;4859674;29;20044;-93
2022/11/13 16:01:30;;;;;;;13.35;4.95;;;;;;;-144.40;100.00;60209.53;4861056;29;20029;-92
2022/11/13 16:03:57;;;;;;;14.95;5.57;;;;;;;-144.40;100.00;60209.53;4860678;29;20132;-93
2022/11/13 16:06:23;;;;;;;11.95;5.68;;;;;;;-144.40;100.00;60209.53;4860805;29;20087;-93
2022/11/13 16:08:49;;;;;;;13.02;4.75;;;;;;;-144.40;100.00;60209.53;4859657;29;20029;-92
2022/11/13 16:11:16;;;;;;;14.13;5.05;;;;;;;-144.40;100.00;60209.53;4845833;29;20228;-94
2022/11/13 16:13:43;;;;;;;8.90;5.03;;;;;;;-144.40;100.00;60209.53;4859213;29;20040;-93
2022/11/13 16:16:15;;;;;;;13.98;4.68;;;;;;;-144.40;100.00;60209.53;4856982;29;20034;-94
2022/11/13 16:18:41;;;;;;;10.70;5.00;;;;;;;-144.40;100.00;60209.53;4845583;29;20114;-93
2022/11/13 16:21:11;;;;;;;13.32;5.10;;;;;;;-144.40;100.00;60209.53;4852687;29;20369;-93
2022/11/13 16:23:36;;;;;;;11.80;4.88;;;;;;;-144.40;100.00;60209.53;4849466;29;20037;-92
2022/11/13 16:26:03;;;;;;;13.52;5.43;;;;;;;-144.40;100.00;60209.53;4841165;29;20038;-91
2022/11/13 16:28:29;;;;;;;9.10;4.60;;;;;;;-144.40;100.00;60209.53;4841760;29;20034;-90
2022/11/13 16:30:55;;;;;;;13.10;6.07;;;;;;;-144.40;100.00;60209.53;4847986;29;20078;-91
2022/11/13 16:33:20;;;;;;;12.35;6.20;;;;;;;-144.40;100.00;60209.53;4842155;29;20504;-91
2022/11/13 16:35:47;;;;;;;10.32;5.70;;;;;;;-144.40;100.00;60209.53;4860057;29;20041;-95
2022/11/13 16:38:16;;;;;;;11.18;5.88;;;;;;;-144.40;100.00;60209.53;4867066;29;20049;-95
2022/11/13 16:40:45;;;;;;;11.50;6.05;;;;;;;-144.40;100.00;60209.53;4863806;29;20098;-96
2022/11/13 16:43:11;;;;;;;11.68;5.95;;;;;;;-144.40;100.00;60209.53;4860520;29;20069;-93
2022/11/13 16:45:37;;;;;;;11.82;6.30;;;;;;;-144.40;100.00;60209.53;4859268;29;20060;-93
2022/11/13 16:48:05;;;;;;;8.82;5.90;;;;;;;-144.40;100.00;60209.53;4860379;29;20059;-94
2022/11/13 16:50:32;;;;;;;11.15;5.85;;;;;;;-144.40;100.00;60209.53;4860956;29;20033;-93
2022/11/13 16:52:58;;;;;;;13.35;6.13;;;;;;;-144.40;100.00;60209.53;4874615;29;20516;-93
2022/11/13 16:55:23;;;;;;;12.30;6.15;;;;;;;-144.40;100.00;60209.53;4859192;29;20034;-94
2022/11/13 16:57:49;;;;;;;17.13;6.97;;;;;;;-144.40;100.00;60209.53;4859420;29;20037;-93
2022/11/13 17:00:17;;;;;;;10.43;6.38;;;;;;;-144.40;100.00;60209.53;4860300;29;20036;-95
2022/11/13 17:02:43;;;;;;;15.30;6.57;;;;;;;-144.40;100.00;60209.53;4860789;29;20041;-94
2022/11/13 17:05:13;;;;;;;13.05;5.90;;;;;;;-144.40;100.00;60209.53;4859938;29;20025;-93
2022/11/13 17:07:39;;;;;;;16.73;6.88;;;;;;;-144.40;100.00;60209.53;4860215;29;20049;-92
2022/11/13 17:10:05;;;;;;;12.07;7.00;;;;;;;-144.40;100.00;60209.53;4859246;29;20084;-94
2022/11/13 17:12:31;;;;;;;10.32;6.18;;;;;;;-144.40;100.00;60209.53;4859898;29;20097;-95
2022/11/13 17:14:57;;;;;;;12.48;7.13;;;;;;;-144.40;100.00;60209.53;4850220;29;20397;-92
2022/11/13 17:17:22;;;;;;;16.98;6.38;;;;;;;-144.40;100.00;60209.53;4847829;29;20060;-92
2022/11/13 17:19:48;;;;;;;13.15;6.55;;;;;;;-144.40;100.00;60209.53;4860140;29;20026;-93
2022/11/13 17:22:15;;;;;;;11.43;6.53;;;;;;;-144.40;100.00;60209.53;4860669;29;20112;-93
2022/11/13 17:24:41;;;;;;;14.20;6.25;;;;;;;-144.40;100.00;60209.53;4860350;29;20033;-93
2022/11/13 17:27:07;;;;;;;13.05;6.95;;;;;;;-144.40;100.00;60209.53;4859572;29;20113;-92
2022/11/13 17:29:32;;;;;;;13.35;6.53;;;;;;;-144.40;100.00;60209.53;4860254;29;20477;-93
2022/11/13 17:31:58;;;;;;;19.13;6.60;;;;;;;-144.40;100.00;60209.53;4856210;29;20033;-92
2022/11/13 17:34:24;;;;;;;19.13;7.68;;;;;;;-144.40;100.00;60209.53;4856280;29;20041;-92
2022/11/13 17:36:53;;;;;;;21.13;8.35;;;;;;;-144.40;100.00;60209.53;4858067;29;20059;-94
2022/11/13 17:39:19;;;;;;;11.30;7.57;;;;;;;-144.40;100.00;60209.53;4856944;29;20093;-93
2022/11/13 17:41:44;;;;;;;19.10;7.50;;;;;;;-144.40;100.00;60209.53;4859446;29;20025;-93
2022/11/13 17:44:10;;;;;;;14.77;8.32;;;;;;;-144.40;100.00;60209.53;4858488;29;20101;-92
2022/11/13 17:46:35;;;;;;;12.82;7.00;;;;;;;-144.40;100.00;60209.53;4859458;29;20033;-94
2022/11/13 17:49:01;;;;;;;15.95;9.05;;;;;;;-144.40;100.00;60209.53;4863877;29;20025;-92
2022/11/13 17:51:26;;;;;;;15.82;7.10;;;;;;;-144.40;100.00;60209.53;4855916;29;20033;-92
2022/11/13 17:53:55;;;;;;;20.70;8.07;;;;;;;-144.40;100.00;60209.53;4843026;29;20442;-94
2022/11/13 17:56:20;;;;;;;18.35;8.35;;;;;;;-144.40;100.00;60209.53;4849826;29;20038;-91
2022/11/13 17:58:46;;;;;;;13.32;7.38;;;;;;;-144.40;100.00;60209.53;4847807;29;20029;-91
2022/11/13 18:01:17;;;;;;;11.77;7.43;;;;;;;-144.40;100.00;60209.53;4853065;29;20545;-95
2022/11/13 18:03:42;;;;;;;15.55;7.85;;;;;;;-144.40;100.00;60209.53;4848101;29;20061;-91
2022/11/13 18:06:10;;;;;;;14.45;8.07;;;;;;;-144.40;100.00;60209.53;4850979;29;20058;-93
2022/11/13 18:08:43;;;;;;;18.50;7.93;;;;;;;-144.40;100.00;60209.53;4858846;29;20438;-96
2022/11/13 18:11:14;;;;;;;13.55;7.40;;;;;;;-144.40;100.00;60209.53;4868317;29;20026;-92
2022/11/13 18:13:41;;;;;;;14.65;8.48;;;;;;;-144.40;100.00;60209.53;4864526;29;20033;-91
2022/11/13 18:16:14;;;;;;;19.58;8.70;;;;;;;-144.40;100.00;60209.53;4862903;29;20052;-94
2022/11/13 18:18:40;;;;;;;17.75;7.53;;;;;;;-144.40;100.00;60209.53;4861943;29;20092;-92
2022/11/13 18:21:11;;;;;;;10.45;7.82;;;;;;;-144.40;100.00;60209.53;4860219;29;20033;-92
2022/11/13 18:23:37;;;;;;;12.45;7.68;;;;;;;-144.40;100.00;60209.53;4859068;29;20053;-92
2022/11/13 18:26:21;;;;;;;11.32;7.28;;;;;;;-144.40;100.00;60209.53;4855475;29;20046;-91
2022/11/13 18:28:46;;;;;;;15.48;7.07;;;;;;;-144.40;100.00;60209.53;4844678;29;20026;-93
2022/11/13 18:31:15;;;;;;;16.13;8.23;;;;;;;-144.40;100.00;60209.53;4848435;29;20037;-93
2022/11/13 18:33:41;;;;;;;15.90;8.48;;;;;;;-144.40;100.00;60209.53;4862592;29;20173;-93
2022/11/13 18:36:07;;;;;;;14.68;7.95;;;;;;;-144.40;100.00;60209.53;4860048;29;20029;-92
2022/11/13 18:38:34;;;;;;;19.17;8.40;;;;;;;-144.40;100.00;60209.53;4862646;29;20037;-93
2022/11/13 18:41:05;;;;;;;14.93;7.95;;;;;;;-144.40;100.00;60209.53;4862193;29;20029;-92
2022/11/13 18:43:30;;;;;;;16.20;7.90;;;;;;;-144.40;100.00;60209.53;4861156;29;20039;-92
2022/11/13 18:45:58;;;;;;;15.75;8.38;;;;;;;-144.40;100.00;60209.53;4862129;29;20026;-91
2022/11/13 18:48:23;;;;;;;16.88;8.20;;;;;;;-144.40;100.00;60209.53;4862429;29;20041;-94
2022/11/13 18:51:01;;;;;;;15.98;8.48;;;;;;;-144.40;100.00;60209.53;4860350;29;20085;-91
2022/11/13 18:53:27;;;;;;;13.55;9.00;;;;;;;-144.40;100.00;60209.53;4862289;29;20033;-94
2022/11/13 18:56:00;;;;;;;14.82;8.40;;;;;;;-144.40;100.00;60209.53;4857954;29;20046;-91
2022/11/13 18:58:26;;;;;;;16.13;9.23;;;;;;;-144.40;100.00;60209.53;4855192;29;20034;-93
2022/11/13 19:00:52;;;;;;;14.07;8.05;;;;;;;-144.40;100.00;60209.53;4854623;29;20048;-92
2022/11/13 19:03:17;;;;;;;16.60;9.45;;;;;;;-144.40;100.00;60209.53;4854024;29;20037;-91
2022/11/13 19:05:46;;;;;;;16.55;10.00;;;;;;;-144.40;100.00;60209.53;4860078;29;20500;-94
2022/11/13 19:08:25;;;;;;;;;;;;;;;;;;;;;
2022/11/13 19:10:58;;;;;;;16.52;9.63;;;;;;;-144.40;100.00;60209.53;4864750;29;20044;-91
2022/11/13 19:13:26;;;;;;;13.43;9.40;;;;;;;-144.40;100.00;60209.53;4859882;29;20034;-90
2022/11/13 19:15:53;;;;;;;13.65;9.13;;;;;;;-144.40;100.00;60209.53;4845942;29;20057;-93
2022/11/13 19:18:19;;;;;;;23.27;10.35;;;;;;;-144.40;100.00;60209.53;4849279;29;20473;-92